• Join FlightAware (Why Join?)
  • Login
  • US Flag 
11:21AM EDT


 

Airport Tracker/Info


-or-


 

Live Flight TrackerFlight Track Log ✈ SWA1199 ✈ 02-Dec-2013 ✈ KHOU - KLAX

Flight Track Log - Related Links

Times and Time Zones

All times are in EST time to prevent confusion due to time zone crossing. See the SWA1199 flight status page for this flight to view local times or setup timezone preferences in your user account.

Time Position Orientation Groundspeed Altitude Reporting Facility
EST Latitude Longitude Course Direction KTS MPH feet Rate Location/Type
01:43PM 29.6353 -95.2892 234° Southwest 158 182 900  Level Houston Center
01:43PM 29.6153 -95.3203 234° Southwest 186 214 2,200 1,680 Climbing Houston Center
01:44PM 29.6044 -95.3356 231° Southwest 189 217 2,800 2,040 Climbing Houston Center
01:44PM 29.5783 -95.3753 233° Southwest 228 262 4,300 2,280 Climbing Houston Center
01:45PM 29.5656 -95.3953 234° Southwest 225 259 5,200 2,640 Climbing Houston Center
01:46PM 29.5236 -95.4625 234° Southwest 257 296 8,200 2,640 Climbing Houston Center
01:47PM 29.5619 -95.5356 301° West 269 310 10,700 1,980 Climbing Houston Center
01:48PM 29.6217 -95.6431 303° West 332 382 12,300 1,740 Climbing Houston Center
01:49PM 29.6783 -95.7450 303° West 370 426 14,400 1,980 Climbing Houston Center
01:50PM 29.7369 -95.8517 302° West 391 450 16,500 2,460 Climbing Houston Center
01:51PM 29.7969 -95.9564 303° West 392 451 19,500 2,340 Climbing Houston Center
01:52PM 29.8578 -96.0647 303° West 394 453 21,400 1,680 Climbing Houston Center
01:53PM 29.9175 -96.1728 303° West 401 461 23,000 1,740 Climbing Houston Center
01:54PM 29.9586 -96.3228 288° West 411 473 25,100 1,980 Climbing Houston Center
01:55PM 29.9875 -96.4497 285° West 412 474 27,100 2,160 Climbing Houston Center
01:56PM 30.0153 -96.5697 285° West 399 459 29,600 1,980 Climbing Houston Center
01:57PM 30.0408 -96.6814 285° West 374 430 31,200 1,140 Climbing Houston Center
01:58PM 30.0661 -96.7933 285° West 365 420 32,000 360 Climbing Houston Center
01:59PM 30.0969 -96.9303 285° West 370 426 32,000 780 Level Houston Center
02:00PM 30.1192 -97.0294 285° West 363 418 33,700 960 Climbing Houston Center
02:01PM 30.1475 -97.1581 284° West 353 406 34,000 120 Climbing Houston Center
02:02PM 30.1728 -97.2717 284° West 359 413 34,000  Level Houston Center
02:03PM 30.1975 -97.3867 284° West 362 417 34,000  Level Houston Center
02:04PM 30.2222 -97.5014 284° West 364 419 34,000  Level Houston Center
02:05PM 30.2486 -97.6172 285° West 369 425 34,000  Level Houston Center
02:06PM 30.2733 -97.7317 284° West 364 419 34,000  Level Houston Center
02:07PM 30.2983 -97.8472 284° West 365 420 34,000  Level Houston Center
02:08PM 30.3267 -97.9778 284° West 364 419 34,000  Level Houston Center
02:10PM 30.3519 -98.0978 284° West 366 421 34,000 480 Level Houston Center
02:11PM 30.3767 -98.2114 284° West 363 418 35,000 960 Climbing Houston Center
02:12PM 30.3994 -98.3203 284° West 349 402 36,000 480 Climbing Houston Center
02:13PM 30.4211 -98.4275 283° West 341 392 36,000  Level Houston Center
02:14PM 30.4444 -98.5358 284° West 342 394 36,000  Level Houston Center
02:15PM 30.4661 -98.6436 283° West 342 394 36,000  Level Houston Center
02:16PM 30.4894 -98.7533 284° West 347 399 36,000  Level Houston Center
02:17PM 30.5158 -98.8806 284° West 344 396 36,000  Level Houston Center
02:18PM 30.5381 -98.9886 283° West 343 395 36,000  Level Houston Center
02:19PM 30.5606 -99.0981 283° West 345 397 36,000  Level Houston Center
02:20PM 30.5806 -99.1953 283° West 342 394 36,000  Level Houston Center
02:21PM 30.6081 -99.3247 284° West 345 397 36,000  Level Houston Center
02:22PM 30.6289 -99.4314 283° West 343 395 36,000  Level Houston Center
02:23PM 30.6503 -99.5400 283° West 346 398 36,000  Level Houston Center
02:24PM 30.6717 -99.6472 283° West 345 397 36,000  Level Houston Center
02:25PM 30.6950 -99.7583 284° West 354 407 36,000  Level Houston Center
02:26PM 30.7208 -99.8906 283° West 352 405 36,000  Level Houston Center
02:27PM 30.7422 -100.0019 283° West 355 409 36,000  Level Houston Center
02:28PM 30.7647 -100.1111 284° West 351 404 36,000  Level Houston Center
02:29PM 30.7864 -100.2225 283° West 353 406 36,000  Level Houston Center
02:30PM 30.8089 -100.3331 283° West 354 407 36,000  Level Houston Center
02:31PM 30.8342 -100.4653 283° West 352 405 36,000  Level Houston Center
02:32PM 30.8544 -100.5767 282° West 353 406 36,000  Level Houston Center
02:33PM 30.8764 -100.6869 283° West 353 406 36,000  Level Houston Center
02:34PM 30.8967 -100.7975 282° West 351 404 36,000  Level Houston Center
02:35PM 30.9181 -100.9075 283° West 350 403 36,000  Level Houston Center
02:36PM 30.9392 -101.0181 283° West 350 403 36,000  Level Houston Center
02:37PM 30.9631 -101.1489 282° West 346 398 36,000  Level Houston Center
02:39PM 30.9842 -101.2597 283° West 350 403 36,000  Level Houston Center
02:40PM 31.0058 -101.3761 282° West 351 404 36,000  Level Houston Center
02:41PM 31.0250 -101.4872 281° West 350 403 36,000  Level Houston Center
02:42PM 31.0464 -101.5986 283° West 352 405 36,000  Level Houston Center
02:43PM 31.0669 -101.7081 282° West 349 402 36,000  Level Houston Center
02:44PM 31.0864 -101.8164 282° West 342 394 36,000  Level Houston Center
02:45PM 31.1100 -101.9444 282° West 338 389 36,000  Level Houston Center
02:46PM 31.1292 -102.0506 282° West 335 386 36,000  Level Houston Center
02:47PM 31.1486 -102.1583 282° West 337 388 36,000  Level Houston Center
02:47PM 31.1597 -102.2250 281° West 336 387 36,000  Level Albuquerque Center
02:48PM 31.1789 -102.3317 282° West 336 387 36,000  Level Albuquerque Center
02:49PM 31.1969 -102.4389 281° West 336 387 36,000  Level Albuquerque Center
02:51PM 31.2194 -102.5667 282° West 336 387 36,000  Level Albuquerque Center
02:52PM 31.2394 -102.6753 282° West 340 391 36,000  Level Albuquerque Center
02:53PM 31.2581 -102.7828 281° West 340 391 36,000  Level Albuquerque Center
02:54PM 31.2758 -102.8914 281° West 340 391 36,000  Level Albuquerque Center
02:55PM 31.2953 -103.0003 282° West 343 395 36,000  Level Albuquerque Center
02:56PM 31.3150 -103.1119 282° West 348 400 36,000  Level Albuquerque Center
02:57PM 31.3369 -103.2450 281° West 348 400 36,000  Level Albuquerque Center
02:58PM 31.3556 -103.3553 281° West 348 400 36,000  Level Albuquerque Center
02:59PM 31.3747 -103.4622 282° West 347 399 36,000  Level Albuquerque Center
03:00PM 31.3931 -103.5722 281° West 347 399 36,000  Level Albuquerque Center
03:01PM 31.4111 -103.6800 281° West 342 394 36,000  Level Albuquerque Center
03:02PM 31.4333 -103.8125 281° West 345 397 36,000  Level Albuquerque Center
03:03PM 31.4514 -103.9231 281° West 347 399 36,000  Level Albuquerque Center
03:04PM 31.4694 -104.0339 281° West 348 400 36,000  Level Albuquerque Center
03:05PM 31.4886 -104.1469 281° West 352 405 36,000  Level Albuquerque Center
03:06PM 31.5064 -104.2603 280° West 354 407 36,000  Level Albuquerque Center
03:07PM 31.5253 -104.3719 281° West 353 406 36,000  Level Albuquerque Center
03:08PM 31.5467 -104.5061 281° West 351 404 36,000  Level Albuquerque Center
03:09PM 31.5758 -104.6117 288° West 345 397 36,000  Level Albuquerque Center
03:10PM 31.6028 -104.7156 287° West 339 390 36,000  Level Albuquerque Center
03:11PM 31.6308 -104.8183 288° West 334 384 36,000  Level Albuquerque Center
03:12PM 31.6503 -104.9239 282° West 333 383 36,000 -540 Level Albuquerque Center
03:13PM 31.6667 -105.0317 280° West 336 387 35,000 -1,620 Descending Albuquerque Center
03:14PM 31.6886 -105.1622 281° West 341 392 32,700 -1,500 Descending Albuquerque Center
03:15PM 31.7058 -105.2797 280° West 360 414 32,000 -360 Descending Albuquerque Center
03:16PM 31.7239 -105.3953 280° West 363 418 32,000  Level Albuquerque Center
03:17PM 31.7425 -105.5128 281° West 367 422 32,000  Level Albuquerque Center
03:18PM 31.7608 -105.6289 281° West 364 419 32,000  Level Albuquerque Center
03:19PM 31.7819 -105.7669 280° West 361 415 32,000  Level Albuquerque Center
03:20PM 31.7997 -105.8822 280° West 360 414 32,000  Level Albuquerque Center
03:22PM 31.8169 -105.9964 280° West 357 411 32,000  Level Albuquerque Center
03:23PM 31.8347 -106.1100 280° West 355 409 32,000  Level Albuquerque Center
03:24PM 31.8525 -106.2242 280° West 356 410 32,000  Level Albuquerque Center
03:25PM 31.8703 -106.3392 280° West 357 411 32,000  Level Albuquerque Center
03:26PM 31.8889 -106.4792 279° West 360 414 32,000  Level Albuquerque Center
03:27PM 31.9078 -106.5958 281° West 361 415 32,000  Level Albuquerque Center
03:28PM 31.9256 -106.7114 280° West 359 413 32,000  Level Albuquerque Center
03:29PM 31.9422 -106.8269 280° West 358 412 32,000  Level Albuquerque Center
03:30PM 31.9592 -106.9431 280° West 360 414 32,000  Level Albuquerque Center
03:31PM 31.9761 -107.0597 280° West 361 415 32,000  Level Albuquerque Center
03:32PM 31.9922 -107.1764 279° West 359 413 32,000  Level Albuquerque Center
03:33PM 32.0111 -107.3175 279° West 361 415 32,000  Level Albuquerque Center
03:34PM 32.0281 -107.4347 280° West 361 415 32,000  Level Albuquerque Center
03:35PM 32.0428 -107.5506 279° West 359 413 32,000  Level Albuquerque Center
03:36PM 32.0586 -107.6664 279° West 358 412 32,000  Level Albuquerque Center
03:37PM 32.0744 -107.7828 279° West 358 412 32,000  Level Albuquerque Center
03:38PM 32.0894 -107.9000 279° West 360 414 32,000  Level Albuquerque Center
03:39PM 32.1078 -108.0425 279° West 363 418 32,000  Level Albuquerque Center
03:40PM 32.1242 -108.1603 279° West 363 418 32,000  Level Albuquerque Center
03:41PM 32.1397 -108.2783 279° West 364 419 32,000  Level Albuquerque Center
03:42PM 32.1600 -108.3911 282° West 358 412 32,000  Level Albuquerque Center
03:43PM 32.2017 -108.5039 294° West 364 419 32,000  Level Albuquerque Center
03:44PM 32.2353 -108.6158 290° West 364 419 32,000  Level Albuquerque Center
03:45PM 32.2694 -108.7272 290° West 362 417 32,000  Level Albuquerque Center
03:46PM 32.3114 -108.8611 290° West 362 417 32,000  Level Albuquerque Center
03:47PM 32.3456 -108.9733 290° West 362 417 32,000  Level Albuquerque Center
03:48PM 32.3803 -109.0861 290° West 363 418 32,000  Level Albuquerque Center
03:49PM 32.4133 -109.1967 290° West 359 413 32,000  Level Albuquerque Center
03:50PM 32.4475 -109.3072 290° West 357 411 32,000  Level Albuquerque Center
03:52PM 32.4811 -109.4200 289° West 360 414 32,000  Level Albuquerque Center
03:53PM 32.5153 -109.5317 290° West 360 414 32,000  Level Albuquerque Center
03:54PM 32.5558 -109.6683 289° West 362 417 32,000  Level Albuquerque Center
03:55PM 32.5931 -109.7842 291° West 372 428 32,000  Level Albuquerque Center
03:56PM 32.6250 -109.8978 288° West 366 421 32,000  Level Albuquerque Center
03:57PM 32.6597 -110.0108 290° West 364 419 32,000  Level Albuquerque Center
03:58PM 32.6944 -110.1258 290° West 369 425 32,000  Level Albuquerque Center
03:59PM 32.7269 -110.2394 289° West 364 419 32,000  Level Albuquerque Center
04:00PM 32.7678 -110.3758 290° West 366 421 32,000  Level Albuquerque Center
04:01PM 32.8008 -110.4894 289° West 364 419 32,000  Level Albuquerque Center
04:02PM 32.8333 -110.6031 289° West 364 419 32,000  Level Albuquerque Center
04:03PM 32.8664 -110.7125 290° West 364 419 32,000  Level Albuquerque Center
04:04PM 32.8978 -110.8261 288° West 363 418 32,000  Level Albuquerque Center
04:05PM 32.9372 -110.9603 289° West 360 414 32,000  Level Albuquerque Center
04:06PM 32.9697 -111.0719 289° West 358 412 32,000 -300 Level Albuquerque Center
04:07PM 33.0022 -111.1856 289° West 362 417 31,400 -1,020 Descending Albuquerque Center
04:08PM 33.0356 -111.3033 289° West 375 432 30,000 -720 Descending Albuquerque Center
04:09PM 33.0697 -111.4267 288° West 389 448 30,000  Level Albuquerque Center
04:10PM 33.1044 -111.5481 289° West 387 445 30,000  Level Albuquerque Center
04:11PM 33.1447 -111.6936 288° West 385 443 30,000  Level Albuquerque Center
04:12PM 33.1786 -111.8153 288° West 385 443 30,000  Level Albuquerque Center
04:13PM 33.2125 -111.9375 288° West 387 445 30,000  Level Albuquerque Center
04:14PM 33.2458 -112.0586 288° West 385 443 30,000  Level Albuquerque Center
04:15PM 33.2797 -112.1817 288° West 387 445 30,000  Level Albuquerque Center
04:16PM 33.3128 -112.3053 288° West 389 448 30,000  Level Albuquerque Center
04:17PM 33.3461 -112.4278 288° West 388 447 30,000  Level Albuquerque Center
04:18PM 33.3869 -112.5772 288° West 392 451 30,000  Level Albuquerque Center
04:19PM 33.4164 -112.6864 288° West 393 452 30,000  Level Albuquerque Center
04:20PM 33.4581 -112.8372 288° West 396 456 30,000  Level Albuquerque Center
04:22PM 33.5017 -112.9600 293° West 400 460 30,000  Level Albuquerque Center
04:23PM 33.5469 -113.0831 294° West 404 465 30,000  Level Albuquerque Center
04:24PM 33.5903 -113.2067 293° West 404 465 30,000  Level Albuquerque Center
04:25PM 33.6406 -113.3519 293° West 410 472 30,000  Level Albuquerque Center
04:26PM 33.6853 -113.4783 293° West 411 473 30,000  Level Albuquerque Center
04:27PM 33.7297 -113.6036 293° West 410 472 30,000  Level Albuquerque Center
04:28PM 33.7739 -113.7300 293° West 409 471 30,000  Level Albuquerque Center
04:29PM 33.8181 -113.8553 293° West 408 470 30,000  Level Albuquerque Center
04:30PM 33.8597 -113.9756 293° West 397 457 30,000  Level Albuquerque Center
04:31PM 33.9108 -114.1197 293° West 391 450 30,000  Level Albuquerque Center
04:32PM 33.9533 -114.2456 292° West 392 451 30,000 -60 Level Albuquerque Center
04:33PM 33.9939 -114.3667 292° West 391 450 29,900  Descending Albuquerque Center
04:34PM 34.0356 -114.4811 294° West 376 433 30,000  Climbing Albuquerque Center
04:35PM 34.1181 -114.5967 311° West 372 428 30,000  Level Los Angeles Center
04:36PM 34.1178 -114.7144 270° West 357 411 30,000  Level Los Angeles Center
04:37PM 34.1186 -114.8358 271° West 360 414 30,000  Level Los Angeles Center
04:38PM 34.1175 -114.9831 270° West 365 420 30,000  Level Los Angeles Center
04:39PM 34.1178 -115.1056 270° West 366 421 30,000  Level Los Angeles Center
04:40PM 34.1167 -115.2286 269° West 368 423 30,000  Level Los Angeles Center
04:41PM 34.1158 -115.3506 270° West 366 421 30,000 -180 Level Los Angeles Center
04:42PM 34.1150 -115.4725 270° West 365 420 29,700 -780 Descending Los Angeles Center
04:43PM 34.1136 -115.6175 269° West 362 417 28,500 -1,140 Descending Los Angeles Center
04:44PM 34.1133 -115.7347 270° West 354 407 27,400 -1,020 Descending Los Angeles Center
04:46PM 34.1000 -115.8494 262° West 349 402 26,400 -1,020 Descending Los Angeles Center
04:47PM 34.0836 -115.9594 260° West 339 390 25,400 -1,020 Descending Los Angeles Center
04:48PM 34.0669 -116.0750 260° West 346 398 24,400 -720 Descending Los Angeles Center
04:49PM 34.0503 -116.1861 260° West 342 394 24,000 -240 Descending Los Angeles Center
04:50PM 34.0306 -116.3192 260° West 338 389 24,000  Level Los Angeles Center
04:51PM 34.0119 -116.4339 259° West 347 399 24,000  Level Los Angeles Center
04:52PM 33.9986 -116.5639 263° West 384 442 24,000 -660 Level Los Angeles Center
04:53PM 33.9889 -116.6950 265° West 394 453 22,700 -1,320 Descending Los Angeles Center
04:54PM 33.9781 -116.8258 264° West 395 455 21,300 -1,800 Descending Los Angeles Center
04:55PM 33.9644 -116.9839 264° West 397 457 19,000 -2,100 Descending Los Angeles Center
04:56PM 33.9536 -117.1167 264° West 399 459 17,000 -1,800 Descending Los Angeles Center
04:57PM 33.9500 -117.2500 268° West 379 436 15,300 -1,740 Descending Southern California TRACON
04:58PM 33.9333 -117.3833 261° West 369 425 13,500 -1,560 Descending Southern California TRACON
04:59PM 33.9667 -117.4833 292° West 357 411 12,200 -1,620 Descending Southern California TRACON
05:00PM 34.0167 -117.6000 297° West 378 435 10,300 -1,140 Descending Southern California TRACON
05:01PM 34.0167 -117.7000 270° West 291 335 10,000 -660 Descending Southern California TRACON
05:02PM 34.0167 -117.8000 270° West 277 319 9,000 -1,320 Descending Southern California TRACON
05:03PM 34.0000 -117.8833 256° West 282 325 7,600 -1,500 Descending Southern California TRACON
05:04PM 34.0000 -117.9667 270° West 274 315 6,200 -1,500 Descending Southern California TRACON
05:05PM 33.9833 -118.0667 259° West 269 310 4,700 -1,140 Descending Southern California TRACON
05:06PM 33.9833 -118.1500 270° West 251 289 4,000 -600 Descending Southern California TRACON
05:07PM 33.9667 -118.2167 253° West 198 228 3,500 -780 Descending Southern California TRACON
05:08PM 33.9667 -118.2833 270° West 174 200 2,500 -1,140 Descending Southern California TRACON
05:09PM 33.9667 -118.3333 270° West 168 193 1,300 -1,020 Descending Southern California TRACON
05:10PM 33.9500 -118.3833 248° West 148 170 500 -780 Descending Southern California TRACON
05:10PM 33.9533 -118.4028 282° West 159 183 200 -600 Descending Los Angeles Center
05:12PM 33.9425 -118.4081 270° West  Level Estimated